createdAt,value
2022-08-27T00:00:41.743Z,16.05
2022-08-27T00:01:38.412Z,16.21
2022-08-27T00:02:36.099Z,16.26
2022-08-27T00:03:32.709Z,16.23
2022-08-27T00:04:30.121Z,16.00
2022-08-27T00:05:26.859Z,15.89
2022-08-27T00:06:25.441Z,15.81
2022-08-27T00:07:22.223Z,15.82
2022-08-27T00:08:18.961Z,15.99
2022-08-27T00:09:15.775Z,15.86
2022-08-27T00:10:19.373Z,15.64
2022-08-27T00:11:17.454Z,15.56
2022-08-27T00:12:14.256Z,15.60
2022-08-27T00:13:10.920Z,15.71
2022-08-27T00:14:07.628Z,15.80
2022-08-27T00:15:06.229Z,15.78
2022-08-27T00:16:07.003Z,15.73
2022-08-27T00:17:05.561Z,15.70
2022-08-27T00:18:02.303Z,15.81
2022-08-27T00:18:59.106Z,15.71
2022-08-27T00:19:55.821Z,15.77
2022-08-27T00:20:53.095Z,15.62
2022-08-27T00:21:50.196Z,15.46
2022-08-27T00:22:46.997Z,15.43
2022-08-27T00:23:43.884Z,15.41
2022-08-27T00:24:48.861Z,15.56
2022-08-27T00:25:46.178Z,15.62
2022-08-27T00:26:43.547Z,15.39
2022-08-27T00:27:40.674Z,15.51
2022-08-27T00:28:37.886Z,15.60
2022-08-27T00:29:34.516Z,15.67
2022-08-27T00:30:31.175Z,15.49
2022-08-27T00:31:27.901Z,15.40
2022-08-27T00:32:25.976Z,15.22
2022-08-27T00:33:23.461Z,15.21
2022-08-27T00:34:21.734Z,15.10
2022-08-27T00:35:18.801Z,15.02
2022-08-27T00:36:15.563Z,15.11
2022-08-27T00:37:12.838Z,15.07
2022-08-27T00:38:09.631Z,15.02
2022-08-27T00:39:06.459Z,15.00
2022-08-27T00:40:05.384Z,15.09
2022-08-27T00:41:03.971Z,14.98
2022-08-27T00:42:03.815Z,15.17
2022-08-27T00:43:04.164Z,15.19
2022-08-27T00:44:02.024Z,15.10
2022-08-27T00:44:59.773Z,15.24
2022-08-27T00:46:04.942Z,15.43
2022-08-27T00:47:07.068Z,15.52
2022-08-27T00:48:04.886Z,15.40
2022-08-27T00:49:32.891Z,15.32
2022-08-27T00:50:44.105Z,15.24
2022-08-27T00:51:41.159Z,15.29
2022-08-27T00:52:54.634Z,15.49
2022-08-27T00:53:53.764Z,15.49
2022-08-27T00:54:58.509Z,15.71
2022-08-27T00:56:12.159Z,15.67
2022-08-27T00:57:08.948Z,15.34
2022-08-27T00:58:15.129Z,15.17
2022-08-27T00:59:15.179Z,15.20
2022-08-27T01:00:16.260Z,15.18
2022-08-27T01:01:17.228Z,15.21
2022-08-27T01:02:20.346Z,15.27
2022-08-27T01:03:17.167Z,15.33
2022-08-27T01:04:13.833Z,15.41
2022-08-27T01:05:15.275Z,15.45
2022-08-27T01:06:16.118Z,15.51
2022-08-27T01:07:14.539Z,15.66
2022-08-27T01:08:17.492Z,15.66
2022-08-27T01:09:17.313Z,16.07
2022-08-27T01:10:17.927Z,15.71
2022-08-27T01:11:14.745Z,15.65
2022-08-27T01:12:11.590Z,15.45
2022-08-27T01:13:12.590Z,15.24
2022-08-27T01:14:09.251Z,15.00
2022-08-27T01:15:12.012Z,14.92
2022-08-27T01:16:16.099Z,14.93
2022-08-27T01:17:15.037Z,14.80
2022-08-27T01:18:13.753Z,14.81
2022-08-27T01:19:20.252Z,14.70
2022-08-27T01:20:21.519Z,14.90
2022-08-27T01:21:31.742Z,14.85
2022-08-27T01:22:33.968Z,15.05
2022-08-27T01:23:45.461Z,14.89
2022-08-27T01:24:52.637Z,14.92
2022-08-27T01:25:50.264Z,14.94
2022-08-27T01:26:47.529Z,14.82
2022-08-27T01:27:45.445Z,14.66
2022-08-27T01:28:44.147Z,14.64
2022-08-27T01:29:42.509Z,14.66
2022-08-27T01:30:40.433Z,14.61
2022-08-27T01:31:37.463Z,14.80
2022-08-27T01:32:36.191Z,14.76
2022-08-27T01:33:33.075Z,14.91
2022-08-27T01:34:29.813Z,14.89
2022-08-27T01:35:26.777Z,14.81
2022-08-27T01:36:23.484Z,14.86
2022-08-27T01:37:23.910Z,14.84
2022-08-27T01:38:30.123Z,14.57
2022-08-27T01:39:27.852Z,14.46
2022-08-27T01:40:24.796Z,14.47
2022-08-27T01:41:22.483Z,14.34
2022-08-27T01:42:24.942Z,14.40
2022-08-27T01:43:21.676Z,14.47
2022-08-27T01:44:20.838Z,14.70
2022-08-27T01:45:26.260Z,14.81
2022-08-27T01:46:25.384Z,14.74
2022-08-27T01:47:24.788Z,14.91
2022-08-27T01:48:27.584Z,14.78
2022-08-27T01:49:24.213Z,14.65
2022-08-27T01:50:27.597Z,14.48
2022-08-27T01:51:24.324Z,14.36
2022-08-27T01:52:23.347Z,14.45
2022-08-27T01:53:25.268Z,14.26
2022-08-27T01:54:22.031Z,14.45
2022-08-27T01:55:21.692Z,14.44
2022-08-27T01:56:18.509Z,14.53
2022-08-27T01:57:15.351Z,14.54
2022-08-27T01:58:15.038Z,14.71
2022-08-27T01:59:12.252Z,14.72
2022-08-27T02:00:16.523Z,14.81
2022-08-27T02:01:16.888Z,14.82
2022-08-27T02:02:15.812Z,14.82
2022-08-27T02:03:13.059Z,14.72
2022-08-27T02:04:10.518Z,14.72
2022-08-27T02:05:07.673Z,14.75
2022-08-27T02:06:07.799Z,14.68
2022-08-27T02:07:04.976Z,14.79
2022-08-27T02:08:02.061Z,14.90
2022-08-27T02:09:00.599Z,14.76
2022-08-27T02:09:57.223Z,14.47
2022-08-27T02:10:53.911Z,14.55
2022-08-27T02:11:50.641Z,14.65
2022-08-27T02:12:47.464Z,14.59
2022-08-27T02:13:44.209Z,14.66
2022-08-27T02:14:40.859Z,14.51
2022-08-27T02:15:37.552Z,14.25
2022-08-27T02:16:34.337Z,14.44
2022-08-27T02:17:38.669Z,14.43
2022-08-27T02:18:37.423Z,14.34
2022-08-27T02:19:34.197Z,14.36
2022-08-27T02:20:31.486Z,14.36
2022-08-27T02:21:28.226Z,14.27
2022-08-27T02:22:24.939Z,14.30
2022-08-27T02:23:21.896Z,14.31
2022-08-27T02:24:18.614Z,14.38
2022-08-27T02:25:17.050Z,14.48
2022-08-27T02:26:14.018Z,14.37
2022-08-27T02:27:11.544Z,14.59
2022-08-27T02:28:09.480Z,14.63
2022-08-27T02:29:06.631Z,14.81
2022-08-27T02:30:04.577Z,14.75
2022-08-27T02:31:01.805Z,14.81
2022-08-27T02:31:58.504Z,14.77
2022-08-27T02:32:55.125Z,14.83
2022-08-27T02:33:52.654Z,14.63
2022-08-27T02:34:49.303Z,14.47
2022-08-27T02:35:45.987Z,14.40
2022-08-27T02:36:42.965Z,14.49
2022-08-27T02:37:39.658Z,14.56
2022-08-27T02:38:36.417Z,14.64
2022-08-27T02:39:34.340Z,14.53
2022-08-27T02:40:34.968Z,14.38
2022-08-27T02:41:31.869Z,14.51
2022-08-27T02:42:28.512Z,14.61
2022-08-27T02:43:25.680Z,14.44
2022-08-27T02:44:24.831Z,14.31
2022-08-27T02:45:21.669Z,14.31
2022-08-27T02:46:18.463Z,14.34
2022-08-27T02:47:16.774Z,14.37
2022-08-27T02:48:13.651Z,14.28
2022-08-27T02:49:10.899Z,14.09
2022-08-27T02:50:08.940Z,14.11
2022-08-27T02:51:06.771Z,14.07
2022-08-27T02:52:03.964Z,14.07
2022-08-27T02:53:02.567Z,14.02
2022-08-27T02:54:00.004Z,14.11
2022-08-27T02:54:57.553Z,14.15
2022-08-27T02:55:55.298Z,14.25
2022-08-27T02:56:53.821Z,14.32
2022-08-27T02:57:50.446Z,14.28
2022-08-27T02:58:47.136Z,14.23
2022-08-27T02:59:45.668Z,14.37
2022-08-27T03:00:43.475Z,14.92
2022-08-27T03:01:40.183Z,15.19
2022-08-27T03:02:37.083Z,15.05
2022-08-27T03:03:33.901Z,15.08
2022-08-27T03:04:30.563Z,14.91
2022-08-27T03:05:27.259Z,14.74
2022-08-27T03:06:23.855Z,14.56
2022-08-27T03:07:23.543Z,14.36
2022-08-27T03:08:20.167Z,14.30
2022-08-27T03:09:16.983Z,14.11
2022-08-27T03:10:17.270Z,13.98
2022-08-27T03:11:13.944Z,14.01
2022-08-27T03:12:10.739Z,14.08
2022-08-27T03:13:07.340Z,14.07
2022-08-27T03:14:04.002Z,14.16
2022-08-27T03:15:00.676Z,14.12
2022-08-27T03:15:57.361Z,13.97
2022-08-27T03:16:54.872Z,14.10
2022-08-27T03:18:10.198Z,14.15
2022-08-27T03:19:09.079Z,14.04
2022-08-27T03:20:07.419Z,14.03
2022-08-27T03:21:04.179Z,14.19
2022-08-27T03:22:00.793Z,14.22
2022-08-27T03:22:57.523Z,14.22
2022-08-27T03:23:54.598Z,14.29
2022-08-27T03:24:51.272Z,14.17
2022-08-27T03:25:57.080Z,14.01
2022-08-27T03:26:54.210Z,14.14
2022-08-27T03:27:50.934Z,14.18
2022-08-27T03:28:47.699Z,14.21
2022-08-27T03:29:44.361Z,14.04
2022-08-27T03:30:42.510Z,13.95
2022-08-27T03:31:39.267Z,13.79
2022-08-27T03:32:36.335Z,13.90
2022-08-27T03:33:35.897Z,14.01
2022-08-27T03:34:33.165Z,14.02
2022-08-27T03:35:30.372Z,14.08
2022-08-27T03:36:30.321Z,14.13
2022-08-27T03:37:27.266Z,14.21
2022-08-27T03:38:24.448Z,14.24
2022-08-27T03:39:21.054Z,14.22
2022-08-27T03:40:17.832Z,14.03
2022-08-27T03:41:16.085Z,13.92
2022-08-27T03:42:12.818Z,14.00
2022-08-27T03:43:11.920Z,14.03
2022-08-27T03:44:08.502Z,14.03
2022-08-27T03:45:07.302Z,13.99
2022-08-27T03:46:04.029Z,13.92
2022-08-27T03:47:00.901Z,13.57
2022-08-27T03:47:57.708Z,13.81
2022-08-27T03:48:57.348Z,13.74
2022-08-27T03:49:55.255Z,13.83
2022-08-27T03:50:51.919Z,13.55
2022-08-27T03:51:53.293Z,13.98
2022-08-27T03:52:50.084Z,13.99
2022-08-27T03:53:47.204Z,14.08
2022-08-27T03:54:43.852Z,14.02
2022-08-27T03:55:42.636Z,14.07
2022-08-27T03:56:40.683Z,14.15
2022-08-27T03:57:37.561Z,14.61
2022-08-27T03:58:36.206Z,14.77
2022-08-27T03:59:33.536Z,15.14
2022-08-27T04:00:30.447Z,14.87
2022-08-27T04:01:27.140Z,14.44
2022-08-27T04:02:23.949Z,14.25
2022-08-27T04:03:20.681Z,14.05
2022-08-27T04:04:17.401Z,14.26
2022-08-27T04:05:14.593Z,14.32
2022-08-27T04:06:11.281Z,14.35
2022-08-27T04:07:10.555Z,14.37
2022-08-27T04:08:07.271Z,14.50
2022-08-27T04:09:04.627Z,14.55
2022-08-27T04:10:01.256Z,14.48
2022-08-27T04:10:57.937Z,14.64
2022-08-27T04:11:54.564Z,14.90
2022-08-27T04:12:51.280Z,14.69
2022-08-27T04:13:51.120Z,14.60
2022-08-27T04:14:47.809Z,14.32
2022-08-27T04:15:46.170Z,14.09
2022-08-27T04:16:43.634Z,14.15
2022-08-27T04:17:40.626Z,14.15
2022-08-27T04:18:37.488Z,14.13
2022-08-27T04:19:35.177Z,14.07
2022-08-27T04:20:35.511Z,14.18
2022-08-27T04:21:33.815Z,14.25
2022-08-27T04:22:30.450Z,14.34
2022-08-27T04:23:27.099Z,14.37
2022-08-27T04:24:23.716Z,14.46
2022-08-27T04:25:20.716Z,14.50
2022-08-27T04:26:17.795Z,14.39
2022-08-27T04:27:16.139Z,14.37
2022-08-27T04:28:14.872Z,14.31
2022-08-27T04:29:11.553Z,14.31
2022-08-27T04:30:10.613Z,14.32
2022-08-27T04:31:16.317Z,14.43
2022-08-27T04:32:13.779Z,14.44
2022-08-27T04:33:11.625Z,14.47
2022-08-27T04:34:08.329Z,14.67
2022-08-27T04:35:05.663Z,14.68
2022-08-27T04:36:07.433Z,14.77
2022-08-27T04:37:05.488Z,14.77
2022-08-27T04:38:02.921Z,14.79
2022-08-27T04:38:59.517Z,14.68
2022-08-27T04:39:56.172Z,14.68
2022-08-27T04:41:11.689Z,14.56
2022-08-27T04:42:08.398Z,14.66
2022-08-27T04:43:05.064Z,14.41
2022-08-27T04:44:08.109Z,14.51
2022-08-27T04:45:05.530Z,14.52
2022-08-27T04:46:02.311Z,14.54
2022-08-27T04:47:01.602Z,14.67
2022-08-27T04:47:58.227Z,14.68
2022-08-27T04:48:58.141Z,14.62
2022-08-27T04:49:54.782Z,14.91
2022-08-27T04:50:52.186Z,14.89
2022-08-27T04:51:49.086Z,14.80
2022-08-27T04:52:45.983Z,14.74
2022-08-27T04:53:44.968Z,14.81
2022-08-27T04:54:42.361Z,14.89
2022-08-27T04:55:47.074Z,15.09
2022-08-27T04:56:43.882Z,15.33
2022-08-27T04:57:40.478Z,15.43
2022-08-27T04:58:37.127Z,15.47
2022-08-27T04:59:34.951Z,15.54
2022-08-27T05:00:31.691Z,15.58
2022-08-27T05:01:30.173Z,15.63
2022-08-27T05:02:26.831Z,15.62
2022-08-27T05:03:24.304Z,15.63
2022-08-27T05:04:21.016Z,15.55
2022-08-27T05:05:17.894Z,15.66
2022-08-27T05:06:15.368Z,15.66
2022-08-27T05:07:12.108Z,15.67
2022-08-27T05:08:10.751Z,15.57
2022-08-27T05:09:07.572Z,15.62
2022-08-27T05:10:04.380Z,15.75
2022-08-27T05:11:01.918Z,15.92
2022-08-27T05:11:58.731Z,15.96
2022-08-27T05:12:59.402Z,16.02
2022-08-27T05:13:56.918Z,16.02
2022-08-27T05:14:55.027Z,16.02
2022-08-27T05:15:59.701Z,16.10
2022-08-27T05:16:58.146Z,16.19
2022-08-27T05:17:54.795Z,16.36
2022-08-27T05:18:52.845Z,16.32
2022-08-27T05:19:49.524Z,16.33
2022-08-27T05:20:48.684Z,16.55
2022-08-27T05:21:50.509Z,16.61
2022-08-27T05:22:47.214Z,16.69
2022-08-27T05:23:44.297Z,16.72
2022-08-27T05:24:40.930Z,16.85
2022-08-27T05:25:42.582Z,16.90
2022-08-27T05:26:39.272Z,17.05
2022-08-27T05:27:36.417Z,16.97
2022-08-27T05:28:33.080Z,17.18
2022-08-27T05:29:30.301Z,17.21
2022-08-27T05:30:27.000Z,17.14
2022-08-27T05:31:23.790Z,17.14
2022-08-27T05:32:20.454Z,17.25
2022-08-27T05:33:20.768Z,17.32
2022-08-27T05:34:21.199Z,17.41
2022-08-27T05:35:22.136Z,17.58
2022-08-27T05:36:25.708Z,17.60
2022-08-27T05:37:22.351Z,17.48
2022-08-27T05:38:21.051Z,17.55
2022-08-27T05:39:17.730Z,17.59
2022-08-27T05:40:14.441Z,17.59
2022-08-27T05:41:15.352Z,17.59
2022-08-27T05:42:12.581Z,17.62
2022-08-27T05:43:10.382Z,17.62
2022-08-27T05:44:39.594Z,17.66
2022-08-27T05:45:29.158Z,17.74
2022-08-27T05:46:27.290Z,17.81
2022-08-27T05:47:24.681Z,17.84
2022-08-27T05:48:21.355Z,17.78
2022-08-27T05:49:18.530Z,17.78
2022-08-27T05:50:15.386Z,17.87
2022-08-27T05:51:16.226Z,17.93
2022-08-27T05:52:22.414Z,18.00
2022-08-27T05:53:19.085Z,17.99
2022-08-27T05:54:19.630Z,18.03
2022-08-27T05:55:16.796Z,18.12
2022-08-27T05:56:19.348Z,18.06
2022-08-27T05:57:15.903Z,18.23
2022-08-27T05:58:33.743Z,18.26
2022-08-27T05:59:48.858Z,18.33
2022-08-27T06:01:09.544Z,18.26
2022-08-27T06:02:07.963Z,18.46
2022-08-27T06:03:04.692Z,18.50
2022-08-27T06:04:01.796Z,18.44
2022-08-27T06:04:58.539Z,18.53
2022-08-27T06:06:07.940Z,18.47
2022-08-27T06:07:06.583Z,18.44
2022-08-27T06:08:03.526Z,18.74
2022-08-27T06:09:00.191Z,18.84
2022-08-27T06:09:58.903Z,18.94
2022-08-27T06:10:57.539Z,19.04
2022-08-27T06:11:55.583Z,19.14
2022-08-27T06:12:56.774Z,19.16
2022-08-27T06:13:53.686Z,19.13
2022-08-27T06:14:50.320Z,19.03
2022-08-27T06:15:47.112Z,19.16
2022-08-27T06:16:44.410Z,19.11
2022-08-27T06:17:41.063Z,19.24
2022-08-27T06:18:38.664Z,19.19
2022-08-27T06:19:36.536Z,19.45
2022-08-27T06:20:33.250Z,19.38
2022-08-27T06:21:29.962Z,19.45
2022-08-27T06:22:26.568Z,19.48
2022-08-27T06:23:28.181Z,19.53
2022-08-27T06:24:25.335Z,19.66
2022-08-27T06:25:21.998Z,19.48
2022-08-27T06:26:20.561Z,19.39
2022-08-27T06:27:19.208Z,19.27
2022-08-27T06:28:15.921Z,19.43
2022-08-27T06:29:13.812Z,19.58
2022-08-27T06:30:13.647Z,19.50
2022-08-27T06:31:16.958Z,19.66
2022-08-27T06:32:14.966Z,19.76
2022-08-27T06:33:11.614Z,19.70
2022-08-27T06:34:09.651Z,19.86
2022-08-27T06:35:06.515Z,20.06
2022-08-27T06:36:06.665Z,20.00
2022-08-27T06:37:03.515Z,19.99
2022-08-27T06:38:00.376Z,20.11
2022-08-27T06:38:58.123Z,20.17
2022-08-27T06:39:54.793Z,20.33
2022-08-27T06:40:51.512Z,20.31
2022-08-27T06:41:50.334Z,20.29
2022-08-27T06:42:47.633Z,20.29
2022-08-27T06:43:44.323Z,20.42
2022-08-27T06:44:41.847Z,20.52
2022-08-27T06:45:39.329Z,20.58
2022-08-27T06:46:37.167Z,20.71
2022-08-27T06:47:34.176Z,20.44
2022-08-27T06:48:34.373Z,20.65
2022-08-27T06:49:32.084Z,20.83
2022-08-27T06:50:28.794Z,20.84
2022-08-27T06:51:28.493Z,20.98
2022-08-27T06:52:25.165Z,21.12
2022-08-27T06:53:24.210Z,21.10
2022-08-27T06:54:21.488Z,21.33
2022-08-27T06:55:18.153Z,21.17
2022-08-27T06:56:17.005Z,20.86
2022-08-27T06:57:13.663Z,20.58
2022-08-27T06:58:10.857Z,20.72
2022-08-27T06:59:12.080Z,20.45
2022-08-27T07:00:10.088Z,20.55
2022-08-27T07:01:19.145Z,20.75
2022-08-27T07:02:15.913Z,20.88
2022-08-27T07:03:12.560Z,20.55
2022-08-27T07:04:12.395Z,20.74
2022-08-27T07:05:09.522Z,21.01
2022-08-27T07:06:07.697Z,21.25
2022-08-27T07:07:04.686Z,21.54
2022-08-27T07:08:02.057Z,21.34
2022-08-27T07:08:59.831Z,21.39
2022-08-27T07:09:56.980Z,21.45
2022-08-27T07:10:57.588Z,21.55
2022-08-27T07:11:54.821Z,21.72
2022-08-27T07:12:51.566Z,21.66
2022-08-27T07:13:49.102Z,21.43
2022-08-27T07:14:46.126Z,21.29
2022-08-27T07:15:43.167Z,20.81
2022-08-27T07:16:40.921Z,20.92
2022-08-27T07:17:37.853Z,20.93
2022-08-27T07:18:34.941Z,21.17
2022-08-27T07:19:32.314Z,21.47
2022-08-27T07:20:29.104Z,21.84
2022-08-27T07:21:26.782Z,21.38
2022-08-27T07:22:23.386Z,21.29
2022-08-27T07:23:20.420Z,21.41
2022-08-27T07:24:17.794Z,21.39
2022-08-27T07:25:21.327Z,21.70
2022-08-27T07:26:19.496Z,21.84
2022-08-27T07:27:16.170Z,21.70
2022-08-27T07:28:12.929Z,21.65
2022-08-27T07:29:12.920Z,21.58
2022-08-27T07:30:13.096Z,21.86
2022-08-27T07:31:12.931Z,21.95
2022-08-27T07:32:10.022Z,22.08
2022-08-27T07:33:06.704Z,22.28
2022-08-27T07:34:05.195Z,22.29
2022-08-27T07:35:01.855Z,22.19
2022-08-27T07:35:59.539Z,22.53
2022-08-27T07:36:56.244Z,22.67
2022-08-27T07:37:52.855Z,22.22
2022-08-27T07:39:00.681Z,22.16
2022-08-27T07:39:58.516Z,22.64
2022-08-27T07:40:55.485Z,22.49
2022-08-27T07:42:10.609Z,22.48
2022-08-27T07:43:27.683Z,22.72
2022-08-27T07:44:26.025Z,22.88
2022-08-27T07:45:23.005Z,22.48
2022-08-27T07:46:21.889Z,22.69
2022-08-27T07:47:18.633Z,23.20
2022-08-27T07:48:16.462Z,23.38
2022-08-27T07:49:13.988Z,23.22
2022-08-27T07:50:10.747Z,23.32
2022-08-27T07:51:17.672Z,22.72
2022-08-27T07:52:16.146Z,22.49
2022-08-27T07:53:12.742Z,22.86
2022-08-27T07:54:09.359Z,23.17
2022-08-27T07:55:06.568Z,22.86
2022-08-27T07:56:08.197Z,22.94
2022-08-27T07:57:04.969Z,23.32
2022-08-27T07:58:01.671Z,23.04
2022-08-27T07:58:59.234Z,23.38
2022-08-27T07:59:55.902Z,23.56
2022-08-27T08:00:55.512Z,23.61
2022-08-27T08:01:52.426Z,23.62
2022-08-27T08:02:49.678Z,23.47
2022-08-27T08:03:47.265Z,23.71
2022-08-27T08:04:43.966Z,23.30
2022-08-27T08:05:43.950Z,23.58
2022-08-27T08:06:40.858Z,23.61
2022-08-27T08:07:38.573Z,23.45
2022-08-27T08:08:36.585Z,23.80
2022-08-27T08:09:36.042Z,23.88
2022-08-27T08:10:35.633Z,23.94
2022-08-27T08:11:33.941Z,23.88
2022-08-27T08:12:31.709Z,23.93
2022-08-27T08:13:28.518Z,23.67
2022-08-27T08:14:25.221Z,23.79
2022-08-27T08:15:22.115Z,24.11
2022-08-27T08:16:18.762Z,24.01
2022-08-27T08:17:15.463Z,24.19
2022-08-27T08:18:12.953Z,24.52
2022-08-27T08:19:09.685Z,23.89
2022-08-27T08:20:21.832Z,23.70
2022-08-27T08:21:25.319Z,23.55
2022-08-27T08:22:21.954Z,23.59
2022-08-27T08:23:20.068Z,23.64
2022-08-27T08:24:18.346Z,23.94
2022-08-27T08:25:16.302Z,24.16
2022-08-27T08:26:13.312Z,24.65
2022-08-27T08:27:11.292Z,24.74
2022-08-27T08:28:08.736Z,24.29
2022-08-27T08:29:05.465Z,24.49
2022-08-27T08:30:02.696Z,24.26
2022-08-27T08:30:59.825Z,24.37
2022-08-27T08:31:56.589Z,24.17
2022-08-27T08:32:53.845Z,23.73
2022-08-27T08:33:50.655Z,23.86
2022-08-27T08:34:47.596Z,24.08
2022-08-27T08:35:44.242Z,24.24
2022-08-27T08:36:40.860Z,24.58
2022-08-27T08:37:37.993Z,24.81
2022-08-27T08:38:34.756Z,24.97
2022-08-27T08:39:31.449Z,24.74
2022-08-27T08:40:36.639Z,24.18
2022-08-27T08:41:43.471Z,24.52
2022-08-27T08:42:45.037Z,24.96
2022-08-27T08:43:51.627Z,24.63
2022-08-27T08:44:52.898Z,24.72
2022-08-27T08:45:51.403Z,24.15
2022-08-27T08:46:59.848Z,24.66
2022-08-27T08:48:04.946Z,24.74
2022-08-27T08:49:14.467Z,24.88
2022-08-27T08:50:19.975Z,25.13
2022-08-27T08:51:25.536Z,25.32
2022-08-27T08:52:31.276Z,25.18
2022-08-27T08:53:51.368Z,25.43
2022-08-27T08:54:49.940Z,25.50
2022-08-27T08:56:01.514Z,25.50
2022-08-27T08:57:13.007Z,24.85
2022-08-27T08:58:35.464Z,24.74
2022-08-27T08:59:38.704Z,25.06
2022-08-27T09:00:37.446Z,25.70
2022-08-27T09:01:35.304Z,26.05
2022-08-27T09:02:32.615Z,25.82
2022-08-27T09:03:33.399Z,25.58
2022-08-27T09:04:30.651Z,25.46
2022-08-27T09:05:27.950Z,25.84
2022-08-27T09:06:36.654Z,26.03
2022-08-27T09:07:51.638Z,26.05
2022-08-27T09:08:49.241Z,26.46
2022-08-27T09:10:01.212Z,26.54
2022-08-27T09:11:05.393Z,26.21
2022-08-27T09:12:15.000Z,26.01
2022-08-27T09:13:22.879Z,25.99
2022-08-27T09:14:40.827Z,26.30
2022-08-27T09:15:42.059Z,26.34
2022-08-27T09:16:38.942Z,26.35
2022-08-27T09:17:36.564Z,25.94
2022-08-27T09:18:39.047Z,25.70
2022-08-27T09:19:37.990Z,25.83
2022-08-27T09:20:35.598Z,26.22
2022-08-27T09:21:45.144Z,26.72
2022-08-27T09:23:06.670Z,26.68
2022-08-27T09:24:39.023Z,26.59
2022-08-27T09:25:38.473Z,26.69
2022-08-27T09:26:39.195Z,26.80
2022-08-27T09:27:38.474Z,26.82
2022-08-27T09:28:59.899Z,26.42
2022-08-27T09:29:57.320Z,26.25
2022-08-27T09:30:55.876Z,26.53
2022-08-27T09:32:00.170Z,26.65
2022-08-27T09:33:00.453Z,26.44
2022-08-27T09:33:57.305Z,26.95
2022-08-27T09:34:58.559Z,27.00
2022-08-27T09:35:55.239Z,27.20
2022-08-27T09:37:00.517Z,26.90
2022-08-27T09:37:57.927Z,26.53
2022-08-27T09:38:59.291Z,26.35
2022-08-27T09:40:01.938Z,26.61
2022-08-27T09:41:03.474Z,26.79
2022-08-27T09:42:04.055Z,26.97
2022-08-27T09:43:15.841Z,27.50
2022-08-27T09:44:16.551Z,27.48
2022-08-27T09:45:20.043Z,27.42
2022-08-27T09:46:22.442Z,27.77
2022-08-27T09:47:21.155Z,27.91
2022-08-27T09:48:26.736Z,27.71
2022-08-27T09:49:24.714Z,27.40
2022-08-27T09:50:24.595Z,27.57
2022-08-27T09:51:25.747Z,27.79
2022-08-27T09:52:37.856Z,27.58
2022-08-27T09:53:47.469Z,27.56
2022-08-27T09:54:47.922Z,27.89
2022-08-27T09:55:49.515Z,28.23
2022-08-27T09:56:50.304Z,27.93
2022-08-27T09:57:47.036Z,27.83
2022-08-27T09:58:43.642Z,27.79
2022-08-27T09:59:51.419Z,27.94
2022-08-27T10:00:58.475Z,27.94
2022-08-27T10:02:09.148Z,28.60
2022-08-27T10:03:11.032Z,27.74
2022-08-27T10:04:11.779Z,27.78
2022-08-27T10:05:18.749Z,28.38
2022-08-27T10:06:27.551Z,28.49
2022-08-27T10:07:42.049Z,28.73
2022-08-27T10:08:48.829Z,28.48
2022-08-27T10:09:55.970Z,28.20
2022-08-27T10:11:03.480Z,27.81
2022-08-27T10:12:09.355Z,28.31
2022-08-27T10:13:56.566Z,28.52
2022-08-27T10:14:57.916Z,28.64
2022-08-27T10:16:28.263Z,28.69
2022-08-27T10:17:33.820Z,28.43
2022-08-27T10:18:41.328Z,28.59
2022-08-27T10:20:02.141Z,28.16
2022-08-27T10:21:25.546Z,28.54
2022-08-27T10:22:44.688Z,28.83
2022-08-27T10:24:07.167Z,28.89
2022-08-27T10:25:15.827Z,29.18
2022-08-27T10:26:25.143Z,29.33
2022-08-27T10:27:56.677Z,29.14
2022-08-27T10:29:08.484Z,29.50
2022-08-27T10:30:05.487Z,28.88
2022-08-27T10:31:32.793Z,28.57
2022-08-27T10:32:29.656Z,28.84
2022-08-27T10:33:51.101Z,29.06
2022-08-27T10:35:09.037Z,29.28
2022-08-27T10:36:26.295Z,28.65
2022-08-27T10:38:01.922Z,28.67
2022-08-27T10:39:11.716Z,29.26
2022-08-27T10:40:09.364Z,28.94
2022-08-27T10:41:25.296Z,28.90
2022-08-27T10:42:29.525Z,29.71
2022-08-27T10:43:56.287Z,30.16
2022-08-27T10:45:08.926Z,29.88
2022-08-27T10:46:49.857Z,29.62
2022-08-27T10:48:03.226Z,30.14
2022-08-27T10:49:24.094Z,30.44
2022-08-27T10:50:49.004Z,30.05
2022-08-27T10:51:45.670Z,29.94
2022-08-27T10:52:51.616Z,30.24
2022-08-27T10:54:10.082Z,30.36
2022-08-27T10:55:24.314Z,30.24
2022-08-27T10:57:14.440Z,30.27
2022-08-27T10:58:17.680Z,30.01
2022-08-27T10:59:24.695Z,29.88
2022-08-27T11:00:23.635Z,29.71
2022-08-27T11:01:33.095Z,30.00
2022-08-27T11:02:41.462Z,29.73
2022-08-27T11:03:46.908Z,29.97
2022-08-27T11:04:51.428Z,30.53
2022-08-27T11:05:50.558Z,30.55
2022-08-27T11:06:57.903Z,30.23
2022-08-27T11:08:03.847Z,30.10
2022-08-27T11:09:23.516Z,30.48
2022-08-27T11:10:28.477Z,30.23
2022-08-27T11:12:13.456Z,30.03
2022-08-27T11:13:10.830Z,29.80
2022-08-27T11:14:15.075Z,29.75
2022-08-27T11:15:20.959Z,29.99
2022-08-27T11:16:23.237Z,30.21
2022-08-27T11:17:41.321Z,30.41
2022-08-27T11:18:55.020Z,29.69
2022-08-27T11:19:57.312Z,30.20
2022-08-27T11:21:05.460Z,29.50
2022-08-27T11:22:26.467Z,29.58
2022-08-27T11:23:37.404Z,30.15
2022-08-27T11:24:47.898Z,29.60
2022-08-27T11:25:59.104Z,29.39
2022-08-27T11:27:05.576Z,30.05
2022-08-27T11:28:04.688Z,30.57
2022-08-27T11:29:10.548Z,31.14
2022-08-27T11:30:32.381Z,31.25
2022-08-27T11:31:38.369Z,30.79
2022-08-27T11:33:11.054Z,30.87
2022-08-27T11:34:18.967Z,31.24
2022-08-27T11:35:35.823Z,30.74
2022-08-27T11:36:35.383Z,31.01
2022-08-27T11:37:41.147Z,30.54
2022-08-27T11:38:47.815Z,30.51
2022-08-27T11:40:06.599Z,30.92
2022-08-27T11:41:22.083Z,31.55
2022-08-27T11:42:42.107Z,30.85
2022-08-27T11:43:39.193Z,31.04
2022-08-27T11:44:43.125Z,31.03
2022-08-27T11:45:54.072Z,31.14
2022-08-27T11:46:58.153Z,31.32
2022-08-27T11:47:58.456Z,31.85
2022-08-27T11:49:01.825Z,31.72
2022-08-27T11:50:01.610Z,31.54
2022-08-27T11:51:01.798Z,31.59
2022-08-27T11:52:03.084Z,31.41
2022-08-27T11:53:02.604Z,31.38
2022-08-27T11:54:03.096Z,31.74
2022-08-27T11:55:15.346Z,31.54
2022-08-27T11:56:15.779Z,31.89
2022-08-27T11:57:34.525Z,31.88
2022-08-27T11:58:33.018Z,30.73
2022-08-27T11:59:33.799Z,31.22
2022-08-27T12:00:33.991Z,31.29
2022-08-27T12:01:32.004Z,31.04
2022-08-27T12:02:30.086Z,30.88
2022-08-27T12:03:32.864Z,30.77
2022-08-27T12:04:34.619Z,31.18
2022-08-27T12:05:40.190Z,31.48
2022-08-27T12:06:52.661Z,31.51
2022-08-27T12:07:51.998Z,31.68
2022-08-27T12:08:48.723Z,31.80
2022-08-27T12:09:55.021Z,31.61
2022-08-27T12:11:13.285Z,32.24
2022-08-27T12:12:19.760Z,32.18
2022-08-27T12:13:22.006Z,32.14
2022-08-27T12:14:43.492Z,31.09
2022-08-27T12:16:04.073Z,31.27
2022-08-27T12:17:18.826Z,31.60
2022-08-27T12:18:37.198Z,31.82
2022-08-27T12:20:14.633Z,31.66
2022-08-27T12:21:11.276Z,31.12
2022-08-27T12:22:53.987Z,31.32
2022-08-27T12:24:28.404Z,31.07
2022-08-27T12:25:25.837Z,30.42
2022-08-27T12:26:25.443Z,30.42
2022-08-27T12:27:22.082Z,30.78
2022-08-27T12:28:26.805Z,31.14
2022-08-27T12:29:31.616Z,31.83
2022-08-27T12:30:33.558Z,32.19
2022-08-27T12:31:30.564Z,32.29
2022-08-27T12:32:40.202Z,32.03
2022-08-27T12:33:44.284Z,32.45
2022-08-27T12:34:52.998Z,32.58
2022-08-27T12:35:54.889Z,32.43
2022-08-27T12:36:54.840Z,32.49
2022-08-27T12:38:26.549Z,31.25
2022-08-27T12:39:28.747Z,31.05
2022-08-27T12:40:41.657Z,30.97
2022-08-27T12:41:45.053Z,31.55
2022-08-27T12:42:41.840Z,32.03
2022-08-27T12:43:43.361Z,31.64
2022-08-27T12:44:40.073Z,30.82
2022-08-27T12:45:45.710Z,31.60
2022-08-27T12:47:06.271Z,32.07
2022-08-27T12:48:04.189Z,32.34
2022-08-27T12:49:35.890Z,32.49
2022-08-27T12:50:28.360Z,32.44
2022-08-27T12:51:31.319Z,32.41
2022-08-27T12:52:43.150Z,32.70
2022-08-27T12:53:53.531Z,32.56
2022-08-27T12:55:09.549Z,32.30
2022-08-27T12:56:12.179Z,32.36
2022-08-27T12:57:24.970Z,32.44
2022-08-27T12:58:30.855Z,32.29
2022-08-27T12:59:56.083Z,32.38
2022-08-27T13:01:18.828Z,29.80
2022-08-27T13:02:33.750Z,30.56
2022-08-27T13:03:43.343Z,31.31
2022-08-27T13:04:42.157Z,32.21
2022-08-27T13:05:44.832Z,31.88
2022-08-27T13:06:45.525Z,32.33
2022-08-27T13:07:45.022Z,32.48
2022-08-27T13:08:41.655Z,32.55
2022-08-27T13:09:39.741Z,31.93
2022-08-27T13:10:36.410Z,31.83
2022-08-27T13:11:44.177Z,32.00
2022-08-27T13:12:42.892Z,31.69